createdAt,value
2022-12-14T00:01:42.268Z,97498.47
2022-12-14T00:06:50.490Z,97498.22
2022-12-14T00:11:52.250Z,97487.13
2022-12-14T00:16:54.045Z,97481.84
2022-12-14T00:21:56.063Z,97484.22
2022-12-14T00:26:57.932Z,97485.53
2022-12-14T00:31:59.684Z,97481.03
2022-12-14T00:37:01.461Z,97480.00
2022-12-14T00:42:03.338Z,97474.97
2022-12-14T00:47:05.095Z,97473.38
2022-12-14T00:52:07.262Z,97457.03
2022-12-14T00:57:09.960Z,97462.81
2022-12-14T01:02:11.885Z,97467.06
2022-12-14T01:07:13.743Z,97466.22
2022-12-14T01:12:15.600Z,97473.38
2022-12-14T01:17:17.344Z,97469.13
2022-12-14T01:22:19.114Z,97454.56
2022-12-14T01:27:20.942Z,97434.97
2022-12-14T01:32:23.507Z,97433.59
2022-12-14T01:37:25.251Z,97436.22
2022-12-14T01:42:27.030Z,97429.34
2022-12-14T01:47:37.626Z,97434.59
2022-12-14T01:52:46.953Z,97427.47
2022-12-14T01:58:09.538Z,97428.50
2022-12-14T02:03:17.025Z,97420.78
2022-12-14T02:08:21.107Z,97430.84
2022-12-14T02:13:31.524Z,97439.00
2022-12-14T02:18:34.195Z,97437.13
2022-12-14T02:24:13.398Z,97423.34
2022-12-14T02:29:33.551Z,97432.88
2022-12-14T02:34:58.646Z,97426.53
2022-12-14T02:40:32.807Z,97424.66
2022-12-14T02:45:43.507Z,97410.63
2022-12-14T02:51:08.484Z,97412.16
2022-12-14T02:56:16.950Z,97408.41
2022-12-14T03:01:24.122Z,97412.59
2022-12-14T03:06:26.591Z,97407.31
2022-12-14T03:11:55.424Z,97399.88
2022-12-14T03:17:03.521Z,97393.47
2022-12-14T03:22:11.654Z,97381.28
2022-12-14T03:27:19.476Z,97370.66
2022-12-14T03:32:26.215Z,97368.50
2022-12-14T03:37:53.052Z,97361.84
2022-12-14T03:43:25.233Z,97348.38
2022-12-14T03:48:42.840Z,97349.38
2022-12-14T03:54:00.753Z,97345.53
2022-12-14T03:59:22.763Z,97339.22
2022-12-14T04:04:38.415Z,97335.56
2022-12-14T04:09:52.189Z,97325.25
2022-12-14T04:15:22.772Z,97328.75
2022-12-14T04:20:31.064Z,97325.13
2022-12-14T04:25:57.148Z,97312.72
2022-12-14T04:31:03.112Z,97304.28
2022-12-14T04:36:05.363Z,97292.66
2022-12-14T04:41:11.859Z,97287.66
2022-12-14T04:46:19.725Z,97282.81
2022-12-14T04:51:45.438Z,97284.09
2022-12-14T04:56:56.776Z,97268.78
2022-12-14T05:02:25.537Z,97260.91
2022-12-14T05:08:04.566Z,97245.34
2022-12-14T05:13:17.969Z,97252.56
2022-12-14T05:18:20.112Z,97237.22
2022-12-14T05:23:22.079Z,97243.63
2022-12-14T05:28:23.975Z,97239.09
2022-12-14T05:33:26.119Z,97224.28
2022-12-14T05:38:28.110Z,97216.88
2022-12-14T05:43:30.268Z,97206.28
2022-12-14T05:48:32.397Z,97208.94
2022-12-14T05:53:35.297Z,97199.41
2022-12-14T05:58:38.151Z,97189.84
2022-12-14T06:03:40.521Z,97183.44
2022-12-14T06:08:45.275Z,97185.22
2022-12-14T06:13:48.157Z,97172.50
2022-12-14T06:18:53.790Z,97182.22
2022-12-14T06:23:56.611Z,97181.97
2022-12-14T06:28:59.412Z,97176.16
2022-12-14T06:34:03.121Z,97184.88
2022-12-14T06:39:08.106Z,97178.03
2022-12-14T06:44:14.343Z,97167.44
2022-12-14T06:49:17.004Z,97157.63
2022-12-14T06:54:19.206Z,97160.22
2022-12-14T06:59:21.088Z,97154.06
2022-12-14T07:04:23.018Z,97138.69
2022-12-14T07:09:24.825Z,97147.63
2022-12-14T07:14:26.629Z,97147.94
2022-12-14T07:19:28.449Z,97139.69
2022-12-14T07:24:30.843Z,97139.63
2022-12-14T07:29:34.951Z,97141.69
2022-12-14T07:34:36.930Z,97127.34
2022-12-14T07:39:39.427Z,97121.97
2022-12-14T07:44:41.561Z,97122.38
2022-12-14T07:49:44.455Z,97119.66
2022-12-14T07:54:46.655Z,97110.28
2022-12-14T07:59:52.943Z,97100.91
2022-12-14T08:04:59.138Z,97091.81
2022-12-14T08:10:01.013Z,97085.63
2022-12-14T08:15:02.892Z,97083.41
2022-12-14T08:20:05.280Z,97070.38
2022-12-14T08:25:08.020Z,97064.41
2022-12-14T08:30:10.319Z,97063.22
2022-12-14T08:35:12.162Z,97053.53
2022-12-14T08:40:14.283Z,97060.81
2022-12-14T08:45:16.821Z,97052.69
2022-12-14T08:50:19.262Z,97047.47
2022-12-14T08:55:27.571Z,97042.28
2022-12-14T09:00:31.260Z,97030.34
2022-12-14T09:05:35.520Z,97022.69
2022-12-14T09:10:37.534Z,97013.84
2022-12-14T09:15:39.524Z,97009.69
2022-12-14T09:20:43.521Z,97001.53
2022-12-14T09:25:45.427Z,96988.13
2022-12-14T09:30:47.255Z,96976.03
2022-12-14T09:35:49.358Z,96971.88
2022-12-14T09:40:57.352Z,96970.47
2022-12-14T09:46:14.038Z,96963.78
2022-12-14T09:51:19.606Z,96949.38
2022-12-14T09:56:21.462Z,96941.91
2022-12-14T10:01:23.344Z,96928.09
2022-12-14T10:06:32.851Z,96906.03
2022-12-14T10:11:46.752Z,96910.75
2022-12-14T10:16:58.602Z,96917.03
2022-12-14T10:22:06.903Z,96913.16
2022-12-14T10:27:12.687Z,96909.88
2022-12-14T10:32:25.881Z,96902.56
2022-12-14T10:37:36.550Z,96888.97
2022-12-14T10:42:44.223Z,96876.78
2022-12-14T10:47:57.958Z,96882.69
2022-12-14T10:53:02.904Z,96889.75
2022-12-14T10:58:04.968Z,96874.94
2022-12-14T11:03:14.685Z,96874.31
2022-12-14T11:08:38.479Z,96861.03
2022-12-14T11:13:46.929Z,96876.22
2022-12-14T11:19:00.961Z,96865.28
2022-12-14T11:24:03.771Z,96841.22
2022-12-14T11:29:16.558Z,96855.44
2022-12-14T11:34:24.561Z,96845.28
2022-12-14T11:39:26.473Z,96845.91
2022-12-14T11:44:36.551Z,96835.09
2022-12-14T11:49:38.282Z,96821.19
2022-12-14T11:54:42.805Z,96816.34
2022-12-14T12:00:23.855Z,96816.03
2022-12-14T12:05:27.718Z,96818.88
2022-12-14T12:10:40.689Z,96821.38
2022-12-14T12:15:49.904Z,96815.59
2022-12-14T12:21:10.134Z,96833.31
2022-12-14T12:26:21.502Z,96807.78
2022-12-14T12:31:31.834Z,96794.97
2022-12-14T12:36:33.759Z,96794.97
2022-12-14T12:41:54.711Z,96775.59
2022-12-14T12:47:27.955Z,96774.94
2022-12-14T12:52:40.850Z,96792.47
2022-12-14T12:57:49.263Z,96797.00
2022-12-14T13:03:00.420Z,96791.41
2022-12-14T13:08:08.014Z,96788.09
2022-12-14T13:13:24.195Z,96789.19
2022-12-14T13:23:59.074Z,96765.72
2022-12-14T13:29:29.657Z,96770.56
2022-12-14T13:34:37.320Z,96762.44
2022-12-14T13:40:06.862Z,96754.31
2022-12-14T13:45:30.981Z,96738.34
2022-12-14T13:50:43.342Z,96746.13
2022-12-14T13:56:01.192Z,96737.06
2022-12-14T14:01:15.131Z,96743.47
2022-12-14T14:06:39.219Z,96730.81
2022-12-14T14:11:41.087Z,96728.91
2022-12-14T14:16:50.145Z,96724.41
2022-12-14T14:22:26.447Z,96728.91
2022-12-14T14:27:41.930Z,96731.75
2022-12-14T14:32:44.155Z,96732.34
2022-12-14T14:37:56.603Z,96748.00
2022-12-14T14:43:16.656Z,96743.63
2022-12-14T14:48:35.021Z,96746.94
2022-12-14T14:53:38.948Z,96752.56
2022-12-14T14:58:42.797Z,96748.03
2022-12-14T15:03:59.831Z,96748.97
2022-12-14T15:09:13.632Z,96750.38
2022-12-14T15:14:24.136Z,96739.53
2022-12-14T15:19:36.043Z,96735.16
2022-12-14T15:24:43.501Z,96739.84
2022-12-14T15:29:49.331Z,96737.63
2022-12-14T15:35:05.105Z,96737.47
2022-12-14T15:40:13.087Z,96733.88
2022-12-14T15:45:18.823Z,96725.56
2022-12-14T15:50:20.880Z,96729.19
2022-12-14T15:55:32.275Z,96717.63
2022-12-14T16:00:35.973Z,96719.78
2022-12-14T16:05:37.867Z,96722.00
2022-12-14T16:10:40.395Z,96723.56
2022-12-14T16:15:43.064Z,96722.34
2022-12-14T16:20:55.370Z,96718.59
2022-12-14T16:26:03.250Z,96727.94
2022-12-14T16:31:06.682Z,96744.88
2022-12-14T16:36:08.507Z,96748.03
2022-12-14T16:41:10.997Z,96753.66
2022-12-14T16:46:17.693Z,96743.81
2022-12-14T16:51:32.622Z,96738.00
2022-12-14T16:56:45.609Z,96757.13
2022-12-14T17:01:48.934Z,96742.09
2022-12-14T17:06:54.963Z,96740.69
2022-12-14T17:12:00.168Z,96735.19
2022-12-14T17:17:02.391Z,96740.03
2022-12-14T17:22:06.892Z,96747.41
2022-12-14T17:27:08.769Z,96743.47
2022-12-14T17:32:15.173Z,96746.28
2022-12-14T17:37:22.970Z,96754.44
2022-12-14T17:42:24.932Z,96750.84
2022-12-14T17:47:27.122Z,96752.72
2022-12-14T17:52:32.278Z,96762.44
2022-12-14T17:57:34.129Z,96768.38
2022-12-14T18:02:37.389Z,96770.41
2022-12-14T18:07:39.601Z,96766.81
2022-12-14T18:12:41.887Z,96761.97
2022-12-14T18:17:44.018Z,96769.94
2022-12-14T18:22:49.500Z,96774.00
2022-12-14T18:27:59.239Z,96786.84
2022-12-14T18:33:01.511Z,96783.84
2022-12-14T18:38:03.502Z,96783.69
2022-12-14T18:43:05.732Z,96790.25
2022-12-14T18:48:07.657Z,96796.81
2022-12-14T18:53:17.552Z,96783.66
2022-12-14T18:58:20.774Z,96797.38
2022-12-14T19:03:24.341Z,96811.75
2022-12-14T19:08:26.211Z,96812.25
2022-12-14T19:13:28.440Z,96818.78
2022-12-14T19:18:30.903Z,96816.63
2022-12-14T19:23:34.216Z,96823.00
2022-12-14T19:28:37.442Z,96827.25
2022-12-14T19:33:39.884Z,96836.16
2022-12-14T19:38:42.171Z,96845.50
2022-12-14T19:43:47.312Z,96838.97
2022-12-14T19:48:51.182Z,96844.59
2022-12-14T19:53:55.487Z,96845.59
2022-12-14T19:59:00.926Z,96836.84
2022-12-14T20:04:07.082Z,96851.22
2022-12-14T20:09:09.956Z,96862.03
2022-12-14T20:14:13.345Z,96867.34
2022-12-14T20:19:15.308Z,96865.28
2022-12-14T20:24:17.548Z,96860.22
2022-12-14T20:29:19.474Z,96867.69
2022-12-14T20:34:21.712Z,96866.34
2022-12-14T20:39:23.553Z,96864.66
2022-12-14T20:44:25.527Z,96873.56
2022-12-14T20:49:30.367Z,96864.19
2022-12-14T20:54:32.187Z,96870.84
2022-12-14T20:59:34.150Z,96872.06
2022-12-14T21:04:35.957Z,96882.69
2022-12-14T21:09:37.948Z,96887.84
2022-12-14T21:14:48.091Z,96893.00
2022-12-14T21:19:50.836Z,96883.34
2022-12-14T21:25:08.278Z,96888.50
2022-12-14T21:30:11.574Z,96900.13
2022-12-14T21:35:17.622Z,96904.06
2022-12-14T21:40:39.451Z,96907.03
2022-12-14T21:45:41.351Z,96898.22
2022-12-14T21:50:45.393Z,96905.38
2022-12-14T21:55:51.571Z,96913.47
2022-12-14T22:00:53.455Z,96924.31
2022-12-14T22:05:55.318Z,96925.97
2022-12-14T22:11:02.726Z,96931.56
2022-12-14T22:16:06.026Z,96942.66
2022-12-14T22:21:07.962Z,96940.41
2022-12-14T22:26:09.985Z,96938.63
2022-12-14T22:31:11.799Z,96936.28
2022-12-14T22:36:15.149Z,96937.25
2022-12-14T22:41:18.239Z,96949.25
2022-12-14T22:46:20.538Z,96952.97
2022-12-14T22:51:23.346Z,96950.03
2022-12-14T22:56:41.670Z,96949.03
2022-12-14T23:01:44.162Z,96950.63
2022-12-14T23:06:53.004Z,96959.06
2022-12-14T23:12:14.240Z,96956.81
2022-12-14T23:17:36.658Z,96957.09
2022-12-14T23:22:57.323Z,96966.03
2022-12-14T23:28:18.000Z,96961.50
2022-12-14T23:33:38.625Z,96960.63
2022-12-14T23:38:58.828Z,96956.00
2022-12-14T23:44:19.003Z,96957.25
2022-12-14T23:49:39.002Z,96952.09
2022-12-14T23:54:59.422Z,96956.94
